createdAt,value
2019-06-27T00:00:54.301Z,999.84
2019-06-27T00:01:54.290Z,999.87
2019-06-27T00:02:54.290Z,999.89
2019-06-27T00:03:54.278Z,999.86
2019-06-27T00:04:54.267Z,999.82
2019-06-27T00:05:54.261Z,999.82
2019-06-27T00:06:54.251Z,999.83
2019-06-27T00:07:54.244Z,999.84
2019-06-27T00:08:54.245Z,999.86
2019-06-27T00:09:54.223Z,999.93
2019-06-27T00:10:54.246Z,999.90
2019-06-27T00:11:54.204Z,999.90
2019-06-27T00:12:54.198Z,999.88
2019-06-27T00:13:54.192Z,999.89
2019-06-27T00:14:54.183Z,999.89
2019-06-27T00:15:54.168Z,999.89
2019-06-27T00:16:54.164Z,999.89
2019-06-27T00:17:54.164Z,999.87
2019-06-27T00:18:54.143Z,999.88
2019-06-27T00:19:54.139Z,999.90
2019-06-27T00:20:54.126Z,999.89
2019-06-27T00:21:54.121Z,999.86
2019-06-27T00:22:54.108Z,999.88
2019-06-27T00:23:54.100Z,999.94
2019-06-27T00:24:54.092Z,999.93
2019-06-27T00:25:54.083Z,999.90
2019-06-27T00:26:57.490Z,999.91
2019-06-27T00:27:54.066Z,999.92
2019-06-27T00:28:54.059Z,999.86
2019-06-27T00:29:54.048Z,999.92
2019-06-27T00:30:54.038Z,999.92
2019-06-27T00:31:54.035Z,999.93
2019-06-27T00:32:54.021Z,999.97
2019-06-27T00:33:54.013Z,999.96
2019-06-27T00:34:54.004Z,999.99
2019-06-27T00:35:53.996Z,999.98
2019-06-27T00:36:53.986Z,999.98
2019-06-27T00:37:53.979Z,1000.01
2019-06-27T00:38:53.969Z,1000.03
2019-06-27T00:39:53.958Z,1000.06
2019-06-27T00:40:53.950Z,1000.08
2019-06-27T00:41:53.944Z,1000.12
2019-06-27T00:42:53.935Z,1000.11
2019-06-27T00:43:53.921Z,1000.16
2019-06-27T00:44:53.915Z,1000.15
2019-06-27T00:45:53.906Z,1000.14
2019-06-27T00:46:53.895Z,1000.15
2019-06-27T00:47:53.888Z,1000.14
2019-06-27T00:48:53.891Z,1000.16
2019-06-27T00:49:53.869Z,1000.15
2019-06-27T00:50:53.860Z,1000.18
2019-06-27T00:51:53.850Z,1000.14
2019-06-27T00:52:53.840Z,1000.14
2019-06-27T00:53:53.838Z,1000.16
2019-06-27T00:54:53.825Z,1000.18
2019-06-27T00:55:53.824Z,1000.13
2019-06-27T00:56:53.807Z,1000.12
2019-06-27T00:57:53.799Z,1000.12
2019-06-27T00:58:53.790Z,1000.13
2019-06-27T00:59:53.786Z,1000.13
2019-06-27T01:00:53.776Z,1000.12
2019-06-27T01:01:53.765Z,1000.15
2019-06-27T01:02:53.752Z,1000.16
2019-06-27T01:03:53.771Z,1000.13
2019-06-27T01:04:53.737Z,1000.14
2019-06-27T01:05:53.727Z,1000.13
2019-06-27T01:06:53.716Z,1000.13
2019-06-27T01:07:53.711Z,1000.15
2019-06-27T01:08:53.700Z,1000.16
2019-06-27T01:09:53.691Z,1000.13
2019-06-27T01:10:53.686Z,1000.15
2019-06-27T01:11:53.672Z,1000.23
2019-06-27T01:12:53.667Z,1000.23
2019-06-27T01:13:53.657Z,1000.19
2019-06-27T01:14:53.650Z,1000.15
2019-06-27T01:15:53.647Z,1000.16
2019-06-27T01:16:53.639Z,1000.16
2019-06-27T01:17:53.623Z,1000.17
2019-06-27T01:18:53.613Z,1000.17
2019-06-27T01:19:53.611Z,1000.17
2019-06-27T01:20:53.595Z,1000.19
2019-06-27T01:21:53.587Z,1000.18
2019-06-27T01:22:53.578Z,1000.20
2019-06-27T01:23:53.563Z,1000.21
2019-06-27T01:24:53.560Z,1000.19
2019-06-27T01:25:53.550Z,1000.23
2019-06-27T01:26:53.541Z,1000.26
2019-06-27T01:27:53.528Z,1000.28
2019-06-27T01:28:53.521Z,1000.29
2019-06-27T01:29:53.516Z,1000.26
2019-06-27T01:30:53.504Z,1000.31
2019-06-27T01:31:53.509Z,1000.30
2019-06-27T01:32:53.488Z,1000.35
2019-06-27T01:33:53.479Z,1000.32
2019-06-27T01:34:53.468Z,1000.31
2019-06-27T01:35:53.463Z,1000.34
2019-06-27T01:36:53.454Z,1000.30
2019-06-27T01:37:53.440Z,1000.33
2019-06-27T01:38:53.430Z,1000.30
2019-06-27T01:39:53.421Z,1000.32
2019-06-27T01:40:53.417Z,1000.35
2019-06-27T01:41:53.403Z,1000.31
2019-06-27T01:42:53.404Z,1000.35
2019-06-27T01:43:53.381Z,1000.38
2019-06-27T01:44:53.377Z,1000.37
2019-06-27T01:45:53.371Z,1000.43
2019-06-27T01:46:53.380Z,1000.40
2019-06-27T01:47:53.379Z,1000.38
2019-06-27T01:48:53.336Z,1000.39
2019-06-27T01:49:53.332Z,1000.37
2019-06-27T01:50:53.317Z,1000.37
2019-06-27T01:51:53.309Z,1000.40
2019-06-27T01:52:53.306Z,1000.38
2019-06-27T01:53:53.291Z,1000.38
2019-06-27T01:54:53.282Z,1000.43
2019-06-27T01:55:53.283Z,1000.39
2019-06-27T01:56:53.321Z,1000.40
2019-06-27T01:57:53.252Z,1000.44
2019-06-27T01:58:53.240Z,1000.43
2019-06-27T01:59:53.234Z,1000.44
2019-06-27T02:00:53.226Z,1000.45
2019-06-27T02:01:53.215Z,1000.47
2019-06-27T02:02:53.206Z,1000.47
2019-06-27T02:03:53.192Z,1000.47
2019-06-27T02:04:53.183Z,1000.46
2019-06-27T02:05:53.177Z,1000.46
2019-06-27T02:06:53.167Z,1000.50
2019-06-27T02:07:53.152Z,1000.46
2019-06-27T02:08:53.141Z,1000.45
2019-06-27T02:09:53.142Z,1000.49
2019-06-27T02:10:53.122Z,1000.49
2019-06-27T02:11:53.117Z,1000.45
2019-06-27T02:12:53.108Z,1000.49
2019-06-27T02:13:53.094Z,1000.50
2019-06-27T02:14:53.084Z,1000.51
2019-06-27T02:15:53.077Z,1000.53
2019-06-27T02:16:53.066Z,1000.52
2019-06-27T02:17:53.059Z,1000.48
2019-06-27T02:18:53.045Z,1000.49
2019-06-27T02:19:53.035Z,1000.53
2019-06-27T02:20:53.026Z,1000.48
2019-06-27T02:21:53.022Z,1000.46
2019-06-27T02:22:53.005Z,1000.52
2019-06-27T02:23:52.996Z,1000.50
2019-06-27T02:24:52.986Z,1000.48
2019-06-27T02:25:52.979Z,1000.48
2019-06-27T02:26:52.969Z,1000.50
2019-06-27T02:28:03.130Z,1000.51
2019-06-27T02:28:52.948Z,1000.51
2019-06-27T02:29:52.943Z,1000.52
2019-06-27T02:30:52.937Z,1000.50
2019-06-27T02:31:52.916Z,1000.51
2019-06-27T02:32:52.905Z,1000.52
2019-06-27T02:33:52.903Z,1000.51
2019-06-27T02:34:52.898Z,1000.47
2019-06-27T02:35:52.901Z,1000.48
2019-06-27T02:36:52.875Z,1000.52
2019-06-27T02:37:52.857Z,1000.50
2019-06-27T02:38:52.847Z,1000.49
2019-06-27T02:39:52.837Z,1000.48
2019-06-27T02:40:52.826Z,1000.52
2019-06-27T02:41:52.817Z,1000.47
2019-06-27T02:42:52.829Z,1000.46
2019-06-27T02:43:52.797Z,1000.46
2019-06-27T02:44:52.788Z,1000.46
2019-06-27T02:45:52.783Z,1000.46
2019-06-27T02:46:52.766Z,1000.47
2019-06-27T02:47:52.759Z,1000.47
2019-06-27T02:48:52.752Z,1000.45
2019-06-27T02:49:52.742Z,1000.49
2019-06-27T02:50:52.727Z,1000.48
2019-06-27T02:51:52.722Z,1000.48
2019-06-27T02:52:52.714Z,1000.51
2019-06-27T02:53:52.700Z,1000.54
2019-06-27T02:54:52.705Z,1000.56
2019-06-27T02:55:52.681Z,1000.56
2019-06-27T02:56:52.688Z,1000.60
2019-06-27T02:57:52.663Z,1000.60
2019-06-27T02:58:52.644Z,1000.54
2019-06-27T02:59:53.355Z,1000.56
2019-06-27T03:00:52.631Z,1000.55
2019-06-27T03:01:52.617Z,1000.56
2019-06-27T03:02:54.199Z,1000.58
2019-06-27T03:03:52.600Z,1000.63
2019-06-27T03:04:52.591Z,1000.60
2019-06-27T03:05:52.606Z,1000.63
2019-06-27T03:06:52.566Z,1000.61
2019-06-27T03:07:52.554Z,1000.62
2019-06-27T03:08:52.543Z,1000.62
2019-06-27T03:09:52.537Z,1000.66
2019-06-27T03:10:52.523Z,1000.66
2019-06-27T03:11:52.600Z,1000.64
2019-06-27T03:12:52.502Z,1000.60
2019-06-27T03:13:52.493Z,1000.60
2019-06-27T03:14:52.482Z,1000.63
2019-06-27T03:15:52.465Z,1000.61
2019-06-27T03:16:52.467Z,1000.61
2019-06-27T03:17:52.465Z,1000.63
2019-06-27T03:18:52.443Z,1000.60
2019-06-27T03:19:52.436Z,1000.62
2019-06-27T03:20:52.422Z,1000.64
2019-06-27T03:21:52.417Z,1000.57
2019-06-27T03:22:52.401Z,1000.58
2019-06-27T03:23:52.390Z,1000.57
2019-06-27T03:24:52.381Z,1000.56
2019-06-27T03:25:52.372Z,1000.54
2019-06-27T03:26:52.359Z,1000.55
2019-06-27T03:27:52.359Z,1000.56
2019-06-27T03:28:54.076Z,1000.56
2019-06-27T03:29:52.331Z,1000.55
2019-06-27T03:30:52.330Z,1000.56
2019-06-27T03:31:52.319Z,1000.57
2019-06-27T03:32:52.327Z,1000.55
2019-06-27T03:33:52.286Z,1000.57
2019-06-27T03:34:52.277Z,1000.56
2019-06-27T03:35:52.266Z,1000.55
2019-06-27T03:36:52.254Z,1000.54
2019-06-27T03:37:52.255Z,1000.58
2019-06-27T03:38:52.228Z,1000.58
2019-06-27T03:39:52.226Z,1000.56
2019-06-27T03:40:52.214Z,1000.57
2019-06-27T03:41:52.206Z,1000.56
2019-06-27T03:42:52.201Z,1000.62
2019-06-27T03:43:52.181Z,1000.56
2019-06-27T03:44:52.170Z,1000.61
2019-06-27T03:45:52.162Z,1000.54
2019-06-27T03:46:52.161Z,1000.53
2019-06-27T03:47:52.142Z,1000.51
2019-06-27T03:48:52.130Z,1000.50
2019-06-27T03:49:52.124Z,1000.52
2019-06-27T03:50:55.840Z,1000.56
2019-06-27T03:51:52.111Z,1000.55
2019-06-27T03:52:52.102Z,1000.55
2019-06-27T03:53:52.076Z,1000.53
2019-06-27T03:54:52.067Z,1000.58
2019-06-27T03:55:52.059Z,1000.61
2019-06-27T03:56:52.066Z,1000.62
2019-06-27T03:57:52.038Z,1000.62
2019-06-27T03:59:10.704Z,1000.63
2019-06-27T03:59:52.031Z,1000.65
2019-06-27T04:00:52.005Z,1000.60
2019-06-27T04:01:51.993Z,1000.62
2019-06-27T04:02:51.987Z,1000.62
2019-06-27T04:03:51.974Z,1000.67
2019-06-27T04:04:51.977Z,1000.63
2019-06-27T04:05:51.954Z,1000.69
2019-06-27T04:06:51.947Z,1000.63
2019-06-27T04:07:51.939Z,1000.64
2019-06-27T04:08:51.925Z,1000.62
2019-06-27T04:09:51.916Z,1000.60
2019-06-27T04:10:51.901Z,1000.57
2019-06-27T04:11:51.912Z,1000.58
2019-06-27T04:12:51.878Z,1000.60
2019-06-27T04:13:51.876Z,1000.58
2019-06-27T04:14:51.865Z,1000.58
2019-06-27T04:15:51.863Z,1000.62
2019-06-27T04:16:51.864Z,1000.65
2019-06-27T04:17:51.856Z,1000.66
2019-06-27T04:18:51.823Z,1000.67
2019-06-27T04:19:51.822Z,1000.72
2019-06-27T04:20:51.825Z,1000.68
2019-06-27T04:21:51.800Z,1000.71
2019-06-27T04:22:51.794Z,1000.74
2019-06-27T04:23:51.774Z,1000.72
2019-06-27T04:24:51.762Z,1000.74
2019-06-27T04:25:51.755Z,1000.70
2019-06-27T04:26:51.748Z,1000.74
2019-06-27T04:27:51.732Z,1000.76
2019-06-27T04:28:51.723Z,1000.76
2019-06-27T04:29:51.716Z,1000.85
2019-06-27T04:30:51.707Z,1000.79
2019-06-27T04:31:51.698Z,1000.83
2019-06-27T04:32:51.676Z,1000.83
2019-06-27T04:33:51.679Z,1000.89
2019-06-27T04:34:51.663Z,1000.85
2019-06-27T04:35:51.656Z,1000.84
2019-06-27T04:36:51.642Z,1000.85
2019-06-27T04:37:51.651Z,1000.86
2019-06-27T04:38:51.623Z,1000.90
2019-06-27T04:39:51.614Z,1000.91
2019-06-27T04:40:51.612Z,1000.94
2019-06-27T04:41:51.596Z,1000.94
2019-06-27T04:42:51.599Z,1000.97
2019-06-27T04:43:51.587Z,1000.94
2019-06-27T04:44:51.680Z,1000.94
2019-06-27T04:45:51.555Z,1000.95
2019-06-27T04:46:51.544Z,1000.95
2019-06-27T04:47:51.540Z,1000.96
2019-06-27T04:48:51.532Z,1000.95
2019-06-27T04:49:51.611Z,1000.95
2019-06-27T04:50:51.506Z,1000.96
2019-06-27T04:51:51.491Z,1000.96
2019-06-27T04:52:51.492Z,1001.01
2019-06-27T04:53:51.478Z,1001.04
2019-06-27T04:54:51.465Z,1001.01
2019-06-27T04:55:51.456Z,1001.02
2019-06-27T04:56:51.451Z,1001.00
2019-06-27T04:57:51.440Z,1000.99
2019-06-27T04:58:51.428Z,1000.97
2019-06-27T04:59:53.842Z,1001.00
2019-06-27T05:00:51.412Z,1001.01
2019-06-27T05:01:51.404Z,1001.03
2019-06-27T05:02:51.401Z,1001.00
2019-06-27T05:03:51.382Z,1000.97
2019-06-27T05:04:51.376Z,1001.00
2019-06-27T05:05:51.373Z,1001.05
2019-06-27T05:06:51.370Z,1001.08
2019-06-27T05:07:51.384Z,1001.09
2019-06-27T05:08:51.334Z,1001.07
2019-06-27T05:09:51.329Z,1001.12
2019-06-27T05:10:51.334Z,1001.15
2019-06-27T05:11:51.339Z,1001.15
2019-06-27T05:12:51.300Z,1001.16
2019-06-27T05:13:51.293Z,1001.14
2019-06-27T05:14:51.284Z,1001.13
2019-06-27T05:15:51.292Z,1001.12
2019-06-27T05:16:51.265Z,1001.15
2019-06-27T05:17:51.253Z,1001.11
2019-06-27T05:18:51.248Z,1001.14
2019-06-27T05:19:51.241Z,1001.14
2019-06-27T05:20:51.227Z,1001.12
2019-06-27T05:21:51.220Z,1001.12
2019-06-27T05:22:51.213Z,1001.08
2019-06-27T05:23:51.200Z,1001.06
2019-06-27T05:24:51.191Z,1001.07
2019-06-27T05:25:51.183Z,1001.08
2019-06-27T05:26:51.175Z,1001.11
2019-06-27T05:27:51.165Z,1001.13
2019-06-27T05:28:51.159Z,1001.13
2019-06-27T05:29:51.150Z,1001.15
2019-06-27T05:30:51.714Z,1001.15
2019-06-27T05:31:51.129Z,1001.14
2019-06-27T05:32:51.124Z,1001.20
2019-06-27T05:33:51.120Z,1001.19
2019-06-27T05:34:51.117Z,1001.24
2019-06-27T05:35:51.098Z,1001.23
2019-06-27T05:36:51.090Z,1001.19
2019-06-27T05:37:51.080Z,1001.28
2019-06-27T05:38:51.063Z,1001.21
2019-06-27T05:39:51.068Z,1001.25
2019-06-27T05:40:51.047Z,1001.28
2019-06-27T05:41:51.043Z,1001.32
2019-06-27T05:42:51.032Z,1001.32
2019-06-27T05:43:51.025Z,1001.32
2019-06-27T05:44:51.047Z,1001.32
2019-06-27T05:45:51.010Z,1001.30
2019-06-27T05:46:50.999Z,1001.34
2019-06-27T05:47:51.000Z,1001.39
2019-06-27T05:48:50.985Z,1001.39
2019-06-27T05:49:50.978Z,1001.40
2019-06-27T05:50:50.969Z,1001.36
2019-06-27T05:51:50.959Z,1001.43
2019-06-27T05:52:50.954Z,1001.43
2019-06-27T05:53:50.950Z,1001.40
2019-06-27T05:54:50.933Z,1001.42
2019-06-27T05:55:50.933Z,1001.41
2019-06-27T05:56:50.917Z,1001.38
2019-06-27T05:57:50.911Z,1001.37
2019-06-27T05:58:52.125Z,1001.36
2019-06-27T05:59:50.905Z,1001.36
2019-06-27T06:00:50.889Z,1001.32
2019-06-27T06:01:50.880Z,1001.35
2019-06-27T06:02:50.870Z,1001.34
2019-06-27T06:03:50.872Z,1001.33
2019-06-27T06:04:50.855Z,1001.34
2019-06-27T06:05:50.866Z,1001.31
2019-06-27T06:06:50.838Z,1001.34
2019-06-27T06:07:50.832Z,1001.34
2019-06-27T06:08:50.822Z,1001.36
2019-06-27T06:09:50.811Z,1001.34
2019-06-27T06:10:50.802Z,1001.33
2019-06-27T06:11:50.811Z,1001.32
2019-06-27T06:12:50.794Z,1001.36
2019-06-27T06:13:50.797Z,1001.35
2019-06-27T06:14:50.774Z,1001.34
2019-06-27T06:15:50.799Z,1001.37
2019-06-27T06:16:50.763Z,1001.32
2019-06-27T06:17:50.765Z,1001.33
2019-06-27T06:18:50.745Z,1001.32
2019-06-27T06:19:50.743Z,1001.30
2019-06-27T06:20:50.735Z,1001.31
2019-06-27T06:21:50.743Z,1001.33
2019-06-27T06:22:50.716Z,1001.36
2019-06-27T06:23:50.797Z,1001.33
2019-06-27T06:24:50.701Z,1001.34
2019-06-27T06:25:50.689Z,1001.32
2019-06-27T06:26:50.688Z,1001.34
2019-06-27T06:27:50.677Z,1001.36
2019-06-27T06:28:50.725Z,1001.34
2019-06-27T06:29:50.659Z,1001.36
2019-06-27T06:30:50.705Z,1001.41
2019-06-27T06:31:50.644Z,1001.44
2019-06-27T06:32:50.640Z,1001.43
2019-06-27T06:33:50.695Z,1001.44
2019-06-27T06:34:50.621Z,1001.48
2019-06-27T06:35:50.616Z,1001.46
2019-06-27T06:36:50.612Z,1001.49
2019-06-27T06:37:50.666Z,1001.52
2019-06-27T06:38:50.597Z,1001.54
2019-06-27T06:39:50.590Z,1001.52
2019-06-27T06:40:50.584Z,1001.50
2019-06-27T06:41:50.574Z,1001.54
2019-06-27T06:42:50.660Z,1001.52
2019-06-27T06:43:50.579Z,1001.53
2019-06-27T06:44:50.607Z,1001.54
2019-06-27T06:45:50.549Z,1001.52
2019-06-27T06:46:50.541Z,1001.54
2019-06-27T06:47:50.544Z,1001.55
2019-06-27T06:48:50.539Z,1001.57
2019-06-27T06:49:50.527Z,1001.59
2019-06-27T06:50:50.514Z,1001.51
2019-06-27T06:51:50.509Z,1001.57
2019-06-27T06:52:50.504Z,1001.56
2019-06-27T06:53:50.510Z,1001.59
2019-06-27T06:54:50.515Z,1001.60
2019-06-27T06:55:50.480Z,1001.61
2019-06-27T06:56:50.480Z,1001.62
2019-06-27T06:57:50.482Z,1001.67
2019-06-27T06:58:50.462Z,1001.63
2019-06-27T06:59:50.466Z,1001.63
2019-06-27T07:01:01.144Z,1001.64
2019-06-27T07:01:50.448Z,1001.66
2019-06-27T07:02:50.441Z,1001.69
2019-06-27T07:03:50.435Z,1001.66
2019-06-27T07:04:50.429Z,1001.71
2019-06-27T07:05:50.420Z,1001.67
2019-06-27T07:06:50.414Z,1001.71
2019-06-27T07:07:50.407Z,1001.70
2019-06-27T07:08:50.403Z,1001.65
2019-06-27T07:09:50.395Z,1001.71
2019-06-27T07:10:50.394Z,1001.69
2019-06-27T07:11:50.384Z,1001.74
2019-06-27T07:12:50.384Z,1001.69
2019-06-27T07:13:50.374Z,1001.74
2019-06-27T07:14:50.385Z,1001.71
2019-06-27T07:15:50.362Z,1001.71
2019-06-27T07:16:50.359Z,1001.69
2019-06-27T07:17:50.351Z,1001.73
2019-06-27T07:18:50.346Z,1001.77
2019-06-27T07:19:50.341Z,1001.81
2019-06-27T07:20:50.337Z,1001.75
2019-06-27T07:21:50.329Z,1001.76
2019-06-27T07:22:50.322Z,1001.74
2019-06-27T07:23:50.323Z,1001.78
2019-06-27T07:24:50.309Z,1001.80
2019-06-27T07:25:50.309Z,1001.79
2019-06-27T07:26:50.306Z,1001.78
2019-06-27T07:27:50.303Z,1001.75
2019-06-27T07:28:50.297Z,1001.75
2019-06-27T07:29:50.295Z,1001.75
2019-06-27T07:30:50.296Z,1001.76
2019-06-27T07:31:50.286Z,1001.77
2019-06-27T07:32:50.279Z,1001.74
2019-06-27T07:33:50.276Z,1001.76
2019-06-27T07:34:50.271Z,1001.76
2019-06-27T07:35:50.266Z,1001.74
2019-06-27T07:36:50.270Z,1001.75
2019-06-27T07:37:50.260Z,1001.79
2019-06-27T07:38:50.256Z,1001.85
2019-06-27T07:39:50.252Z,1001.79
2019-06-27T07:40:50.246Z,1001.78
2019-06-27T07:41:50.245Z,1001.83
2019-06-27T07:42:50.242Z,1001.78
2019-06-27T07:43:50.242Z,1001.75
2019-06-27T07:44:50.234Z,1001.77
2019-06-27T07:45:50.232Z,1001.77
2019-06-27T07:46:50.225Z,1001.80
2019-06-27T07:47:50.236Z,1001.79
2019-06-27T07:48:50.220Z,1001.84
2019-06-27T07:49:50.269Z,1001.81
2019-06-27T07:50:50.216Z,1001.80
2019-06-27T07:51:50.214Z,1001.78
2019-06-27T07:52:50.220Z,1001.85
2019-06-27T07:53:50.207Z,1001.80
2019-06-27T07:54:50.204Z,1001.81
2019-06-27T07:55:50.200Z,1001.79
2019-06-27T07:56:50.200Z,1001.84
2019-06-27T07:57:50.196Z,1001.84
2019-06-27T07:58:50.204Z,1001.84
2019-06-27T07:59:50.195Z,1001.87
2019-06-27T08:00:50.199Z,1001.84
2019-06-27T08:01:50.188Z,1001.81
2019-06-27T08:02:50.196Z,1001.79
2019-06-27T08:03:50.182Z,1001.87
2019-06-27T08:04:50.181Z,1001.78
2019-06-27T08:05:50.179Z,1001.85
2019-06-27T08:06:50.183Z,1001.79
2019-06-27T08:07:50.174Z,1001.78
2019-06-27T08:08:50.188Z,1001.73
2019-06-27T08:09:50.168Z,1001.73
2019-06-27T08:10:50.162Z,1001.73
2019-06-27T08:11:50.163Z,1001.76
2019-06-27T08:12:50.164Z,1001.74
2019-06-27T08:13:50.165Z,1001.80
2019-06-27T08:14:50.155Z,1001.82
2019-06-27T08:15:50.221Z,1001.80
2019-06-27T08:16:50.154Z,1001.80
2019-06-27T08:17:50.165Z,1001.84
2019-06-27T08:18:50.166Z,1001.81
2019-06-27T08:19:50.147Z,1001.86
2019-06-27T08:20:50.155Z,1001.86
2019-06-27T08:21:50.147Z,1001.86
2019-06-27T08:22:50.143Z,1001.80
2019-06-27T08:23:50.138Z,1001.79
2019-06-27T08:24:50.139Z,1001.78
2019-06-27T08:25:50.134Z,1001.78
2019-06-27T08:26:50.136Z,1001.81
2019-06-27T08:27:50.133Z,1001.80
2019-06-27T08:28:50.144Z,1001.78
2019-06-27T08:29:50.131Z,1001.76
2019-06-27T08:30:50.135Z,1001.75
2019-06-27T08:31:51.812Z,1001.76
2019-06-27T08:32:50.125Z,1001.80
2019-06-27T08:33:50.128Z,1001.79
2019-06-27T08:34:50.138Z,1001.78
2019-06-27T08:35:50.125Z,1001.75
2019-06-27T08:36:50.125Z,1001.79
2019-06-27T08:37:50.124Z,1001.85
2019-06-27T08:38:50.121Z,1001.82
2019-06-27T08:39:50.119Z,1001.80
2019-06-27T08:40:50.137Z,1001.79
2019-06-27T08:41:50.123Z,1001.81
2019-06-27T08:42:50.117Z,1001.76
2019-06-27T08:43:50.112Z,1001.76
2019-06-27T08:44:50.118Z,1001.77
2019-06-27T08:45:50.119Z,1001.77
2019-06-27T08:46:50.115Z,1001.73
2019-06-27T08:47:50.116Z,1001.70
2019-06-27T08:48:50.116Z,1001.73
2019-06-27T08:49:50.115Z,1001.71
2019-06-27T08:50:50.121Z,1001.71
2019-06-27T08:51:50.112Z,1001.69
2019-06-27T08:52:50.118Z,1001.71
2019-06-27T08:53:50.115Z,1001.74
2019-06-27T08:54:50.114Z,1001.71
2019-06-27T08:55:50.117Z,1001.75
2019-06-27T08:56:50.116Z,1001.75
2019-06-27T08:57:50.116Z,1001.70
2019-06-27T08:58:50.169Z,1001.72
2019-06-27T08:59:50.118Z,1001.73
2019-06-27T09:00:50.116Z,1001.73
2019-06-27T09:01:50.128Z,1001.76
2019-06-27T09:02:53.100Z,1001.76
2019-06-27T09:03:50.121Z,1001.72
2019-06-27T09:04:50.118Z,1001.77
2019-06-27T09:05:50.122Z,1001.75
2019-06-27T09:06:50.127Z,1001.72
2019-06-27T09:07:50.128Z,1001.70
2019-06-27T09:08:50.125Z,1001.76
2019-06-27T09:09:50.122Z,1001.76
2019-06-27T09:10:50.128Z,1001.79
2019-06-27T09:11:50.126Z,1001.73
2019-06-27T09:12:50.130Z,1001.76
2019-06-27T09:13:50.125Z,1001.77
2019-06-27T09:14:50.135Z,1001.75
2019-06-27T09:15:50.128Z,1001.78
2019-06-27T09:16:50.127Z,1001.70
2019-06-27T09:17:50.133Z,1001.73
2019-06-27T09:18:50.130Z,1001.79
2019-06-27T09:19:50.133Z,1001.74
2019-06-27T09:20:50.125Z,1001.74
2019-06-27T09:21:50.138Z,1001.79
2019-06-27T09:22:50.139Z,1001.77
2019-06-27T09:23:50.139Z,1001.81
2019-06-27T09:24:50.143Z,1001.79
2019-06-27T09:25:50.155Z,1001.85
2019-06-27T09:26:50.163Z,1001.81
2019-06-27T09:27:50.145Z,1001.79
2019-06-27T09:28:50.151Z,1001.81
2019-06-27T09:29:50.148Z,1001.79
2019-06-27T09:30:50.151Z,1001.81
2019-06-27T09:31:50.157Z,1001.85
2019-06-27T09:32:50.154Z,1001.82
2019-06-27T09:33:50.163Z,1001.85
2019-06-27T09:34:50.156Z,1001.80
2019-06-27T09:35:50.212Z,1001.82
2019-06-27T09:36:50.163Z,1001.79
2019-06-27T09:37:50.164Z,1001.87
2019-06-27T09:38:50.176Z,1001.81
2019-06-27T09:39:50.172Z,1001.83
2019-06-27T09:40:50.184Z,1001.83
2019-06-27T09:41:50.171Z,1001.83
2019-06-27T09:42:50.187Z,1001.77
2019-06-27T09:43:50.177Z,1001.82
2019-06-27T09:44:50.177Z,1001.79
2019-06-27T09:45:50.179Z,1001.74
2019-06-27T09:46:50.181Z,1001.79
2019-06-27T09:47:50.183Z,1001.79
2019-06-27T09:48:50.289Z,1001.87
2019-06-27T09:49:50.191Z,1001.83
2019-06-27T09:50:50.190Z,1001.80
2019-06-27T09:51:50.212Z,1001.76
2019-06-27T09:52:50.198Z,1001.78
2019-06-27T09:53:50.198Z,1001.80
2019-06-27T09:54:50.211Z,1001.78
2019-06-27T09:55:50.206Z,1001.82
2019-06-27T09:56:50.250Z,1001.80
2019-06-27T09:57:50.210Z,1001.79
2019-06-27T09:58:50.217Z,1001.80
2019-06-27T09:59:50.260Z,1001.78
2019-06-27T10:00:50.215Z,1001.81
2019-06-27T10:01:50.226Z,1001.79
2019-06-27T10:02:50.224Z,1001.74
2019-06-27T10:03:50.230Z,1001.77
2019-06-27T10:04:50.228Z,1001.81
2019-06-27T10:05:50.228Z,1001.79
2019-06-27T10:06:50.233Z,1001.78
2019-06-27T10:07:50.246Z,1001.79
2019-06-27T10:08:50.239Z,1001.80
2019-06-27T10:09:50.235Z,1001.79
2019-06-27T10:10:50.243Z,1001.77
2019-06-27T10:11:53.312Z,1001.79
2019-06-27T10:12:50.251Z,1001.79
2019-06-27T10:13:50.252Z,1001.75
2019-06-27T10:14:50.249Z,1001.75
2019-06-27T10:15:50.264Z,1001.73
2019-06-27T10:16:50.261Z,1001.71
2019-06-27T10:17:50.265Z,1001.69
2019-06-27T10:18:50.269Z,1001.72
2019-06-27T10:19:50.270Z,1001.73
2019-06-27T10:20:50.273Z,1001.72
2019-06-27T10:21:50.274Z,1001.68
2019-06-27T10:22:50.279Z,1001.67
2019-06-27T10:23:50.277Z,1001.71
2019-06-27T10:24:50.285Z,1001.69
2019-06-27T10:25:50.286Z,1001.66
2019-06-27T10:26:50.291Z,1001.64
2019-06-27T10:27:50.301Z,1001.64
2019-06-27T10:28:50.299Z,1001.66
2019-06-27T10:29:50.299Z,1001.64
2019-06-27T10:30:50.303Z,1001.64
2019-06-27T10:31:50.306Z,1001.64
2019-06-27T10:32:59.382Z,1001.65
2019-06-27T10:33:50.317Z,1001.71
2019-06-27T10:34:50.316Z,1001.65
2019-06-27T10:35:50.321Z,1001.64
2019-06-27T10:36:50.322Z,1001.65
2019-06-27T10:37:50.324Z,1001.64
2019-06-27T10:38:50.327Z,1001.62
2019-06-27T10:39:50.350Z,1001.65
2019-06-27T10:40:50.335Z,1001.66
2019-06-27T10:41:50.383Z,1001.66
2019-06-27T10:42:50.342Z,1001.66
2019-06-27T10:43:50.348Z,1001.63
2019-06-27T10:44:50.350Z,1001.65
2019-06-27T10:45:50.367Z,1001.58
2019-06-27T10:46:50.461Z,1001.60
2019-06-27T10:47:50.359Z,1001.65
2019-06-27T10:48:50.364Z,1001.66
2019-06-27T10:49:50.383Z,1001.67
2019-06-27T10:50:50.370Z,1001.66
2019-06-27T10:51:50.373Z,1001.64
2019-06-27T10:52:50.381Z,1001.64
2019-06-27T10:53:50.436Z,1001.61
2019-06-27T10:54:50.402Z,1001.61
2019-06-27T10:55:50.432Z,1001.66
2019-06-27T10:56:50.446Z,1001.61
2019-06-27T10:57:50.402Z,1001.60
2019-06-27T10:58:50.404Z,1001.62
2019-06-27T10:59:50.404Z,1001.59
2019-06-27T11:00:50.410Z,1001.60
2019-06-27T11:01:50.448Z,1001.55
2019-06-27T11:02:50.415Z,1001.57
2019-06-27T11:03:50.429Z,1001.58
2019-06-27T11:04:50.425Z,1001.59
2019-06-27T11:05:50.429Z,1001.58
2019-06-27T11:06:50.429Z,1001.60
2019-06-27T11:07:50.435Z,1001.59
2019-06-27T11:08:50.440Z,1001.55
2019-06-27T11:09:50.463Z,1001.50
2019-06-27T11:10:50.449Z,1001.55
2019-06-27T11:11:50.481Z,1001.55
2019-06-27T11:12:50.457Z,1001.52
2019-06-27T11:13:58.934Z,1001.52
2019-06-27T11:14:59.346Z,1001.52
2019-06-27T11:15:50.472Z,1001.50
2019-06-27T11:16:50.513Z,1001.48
2019-06-27T11:17:50.499Z,1001.45
2019-06-27T11:18:50.487Z,1001.46
2019-06-27T11:19:52.659Z,1001.47
2019-06-27T11:20:50.494Z,1001.51
2019-06-27T11:21:50.501Z,1001.49
2019-06-27T11:22:50.524Z,1001.48
2019-06-27T11:23:50.512Z,1001.41
2019-06-27T11:24:50.517Z,1001.40
2019-06-27T11:25:50.523Z,1001.40
2019-06-27T11:26:50.558Z,1001.38
2019-06-27T11:27:50.527Z,1001.40
2019-06-27T11:28:50.532Z,1001.36
2019-06-27T11:29:50.625Z,1001.39
2019-06-27T11:30:50.549Z,1001.37
2019-06-27T11:31:50.558Z,1001.41
2019-06-27T11:32:50.547Z,1001.39
2019-06-27T11:33:50.566Z,1001.41
2019-06-27T11:34:50.565Z,1001.40
2019-06-27T11:35:50.570Z,1001.38
2019-06-27T11:36:50.575Z,1001.35
2019-06-27T11:37:50.584Z,1001.35
2019-06-27T11:38:50.589Z,1001.34
2019-06-27T11:39:50.592Z,1001.33
2019-06-27T11:40:50.597Z,1001.30
2019-06-27T11:41:50.606Z,1001.31
2019-06-27T11:42:50.607Z,1001.35
2019-06-27T11:43:50.613Z,1001.29
2019-06-27T11:44:50.621Z,1001.30
2019-06-27T11:45:50.624Z,1001.28
2019-06-27T11:46:50.641Z,1001.24
2019-06-27T11:47:50.636Z,1001.23
2019-06-27T11:48:50.687Z,1001.20
2019-06-27T11:49:50.650Z,1001.17
2019-06-27T11:50:50.729Z,1001.15
2019-06-27T11:51:50.661Z,1001.19
2019-06-27T11:52:50.666Z,1001.20
2019-06-27T11:53:50.667Z,1001.16
2019-06-27T11:54:50.672Z,1001.17
2019-06-27T11:55:50.683Z,1001.18
2019-06-27T11:56:50.691Z,1001.13
2019-06-27T11:57:50.704Z,1001.11
2019-06-27T11:58:50.738Z,1001.11
2019-06-27T11:59:50.726Z,1001.16
2019-06-27T12:00:50.714Z,1001.16
2019-06-27T12:01:50.750Z,1001.16
2019-06-27T12:02:50.802Z,1001.13
2019-06-27T12:03:50.797Z,1001.19
2019-06-27T12:04:50.747Z,1001.20
2019-06-27T12:05:50.812Z,1001.17
2019-06-27T12:06:50.766Z,1001.17